createdAt,value
2022-07-25T03:44:38.019Z,47.00
2022-07-25T03:47:40.964Z,47.00
2022-07-25T03:50:43.268Z,47.49
2022-07-25T03:54:12.210Z,47.30
2022-07-25T03:57:14.564Z,47.34
2022-07-25T04:00:17.706Z,47.01
2022-07-25T04:03:20.501Z,46.71
2022-07-25T04:06:23.540Z,46.80
2022-07-25T04:09:26.175Z,46.83
2022-07-25T04:12:37.515Z,46.43
2022-07-25T04:15:40.287Z,46.22
2022-07-25T04:18:43.341Z,46.15
2022-07-25T04:21:46.611Z,46.43
2022-07-25T04:24:49.265Z,46.46
2022-07-25T04:27:51.936Z,46.54
2022-07-25T04:30:54.513Z,46.39
2022-07-25T04:33:57.313Z,46.16
2022-07-25T04:36:59.638Z,45.77
2022-07-25T04:40:02.377Z,45.94
2022-07-25T04:43:05.354Z,45.90
2022-07-25T04:46:07.955Z,45.56
2022-07-25T04:49:10.441Z,45.21
2022-07-25T04:52:13.081Z,44.72
2022-07-25T04:55:15.471Z,44.20
2022-07-25T04:58:18.441Z,43.75
2022-07-25T05:01:21.042Z,43.41
2022-07-25T05:04:23.698Z,43.45
2022-07-25T05:07:26.123Z,42.97
2022-07-25T05:10:29.709Z,42.75
2022-07-25T05:13:32.269Z,42.33
2022-07-25T05:16:35.215Z,41.92
2022-07-25T05:19:37.802Z,41.15
2022-07-25T05:22:40.756Z,41.31
2022-07-25T05:25:43.167Z,41.30
2022-07-25T05:28:45.860Z,41.55
2022-07-25T05:31:48.790Z,40.55
2022-07-25T05:34:51.434Z,39.66
2022-07-25T05:37:53.852Z,39.58
2022-07-25T05:40:57.026Z,39.30
2022-07-25T05:43:59.385Z,39.16
2022-07-25T05:47:02.043Z,39.00
2022-07-25T05:50:04.710Z,38.88
2022-07-25T05:53:07.527Z,38.34
2022-07-25T05:56:10.464Z,37.87
2022-07-25T05:59:13.328Z,37.06
2022-07-25T06:02:16.272Z,37.33
2022-07-25T06:05:18.949Z,37.20
2022-07-25T06:08:22.518Z,36.93
2022-07-25T06:11:27.975Z,36.81
2022-07-25T06:14:33.211Z,36.07
2022-07-25T06:17:36.602Z,36.36
2022-07-25T06:20:39.098Z,36.20
2022-07-25T06:23:41.826Z,35.92
2022-07-25T06:26:44.228Z,36.20
2022-07-25T06:29:47.139Z,35.72
2022-07-25T06:32:49.977Z,35.68
2022-07-25T06:35:53.021Z,35.52
2022-07-25T06:38:55.387Z,35.29
2022-07-25T06:41:59.665Z,34.83
2022-07-25T06:45:05.125Z,34.48
2022-07-25T06:48:07.794Z,34.62
2022-07-25T06:51:14.614Z,33.99
2022-07-25T06:54:18.570Z,33.93
2022-07-25T06:57:21.101Z,34.26
2022-07-25T07:00:24.440Z,33.74
2022-07-25T07:03:27.179Z,33.78
2022-07-25T07:06:30.151Z,33.56
2022-07-25T07:09:33.108Z,33.25
2022-07-25T07:12:35.879Z,33.49
2022-07-25T07:15:50.188Z,32.93
2022-07-25T07:18:53.298Z,32.69
2022-07-25T07:21:55.648Z,31.92
2022-07-25T07:24:58.409Z,32.66
2022-07-25T07:28:01.076Z,32.74
2022-07-25T07:31:16.120Z,32.58
2022-07-25T07:34:19.610Z,32.28
2022-07-25T07:37:22.123Z,32.31
2022-07-25T07:40:26.734Z,31.81
2022-07-25T07:43:31.730Z,31.56
2022-07-25T07:46:34.569Z,31.21
2022-07-25T07:49:38.145Z,30.85
2022-07-25T07:52:40.670Z,30.30
2022-07-25T07:55:48.449Z,30.37
2022-07-25T07:58:51.164Z,30.08
2022-07-25T08:01:53.847Z,30.26
2022-07-25T08:04:56.611Z,30.50
2022-07-25T08:08:00.107Z,30.56
2022-07-25T08:11:02.731Z,30.42
2022-07-25T08:14:07.150Z,30.21
2022-07-25T08:17:10.076Z,29.83
2022-07-25T08:20:36.905Z,29.79
2022-07-25T08:23:39.083Z,29.64
2022-07-25T08:26:41.615Z,29.48
2022-07-25T08:29:45.678Z,28.99
2022-07-25T08:32:54.032Z,28.88
2022-07-25T08:35:58.704Z,28.92
2022-07-25T08:39:01.443Z,28.77
2022-07-25T08:42:09.109Z,28.59
2022-07-25T08:45:16.333Z,28.75
2022-07-25T08:48:27.749Z,27.94
2022-07-25T08:51:33.351Z,28.11
2022-07-25T08:54:36.768Z,28.10
2022-07-25T08:57:43.662Z,28.21
2022-07-25T09:00:46.903Z,28.12
2022-07-25T09:03:49.367Z,27.80
2022-07-25T09:06:52.572Z,27.65
2022-07-25T09:09:55.007Z,26.61
2022-07-25T09:12:59.671Z,26.35
2022-07-25T09:16:05.543Z,26.56
2022-07-25T09:19:22.561Z,25.85
2022-07-25T09:22:24.915Z,25.09
2022-07-25T09:25:32.526Z,24.38
2022-07-25T09:28:43.530Z,24.79
2022-07-25T09:31:47.296Z,25.39
2022-07-25T09:34:50.558Z,25.75
2022-07-25T09:37:53.256Z,26.34
2022-07-25T09:41:01.390Z,25.70
2022-07-25T09:44:05.386Z,25.03
2022-07-25T09:47:12.522Z,25.42
2022-07-25T09:50:18.444Z,25.81
2022-07-25T09:53:20.992Z,25.70
2022-07-25T09:56:23.675Z,25.75
2022-07-25T09:59:26.184Z,25.36
2022-07-25T10:02:47.067Z,25.25
2022-07-25T10:05:54.877Z,24.95
2022-07-25T10:08:57.750Z,24.89
2022-07-25T10:12:08.923Z,24.29
2022-07-25T10:15:13.477Z,24.11
2022-07-25T10:18:19.331Z,23.38
2022-07-25T10:21:27.421Z,23.17
2022-07-25T10:24:35.199Z,22.93
2022-07-25T10:27:52.084Z,22.72
2022-07-25T10:30:58.527Z,22.37
2022-07-25T10:34:04.524Z,22.35
2022-07-25T10:37:13.073Z,21.59
2022-07-25T10:40:28.606Z,21.74
2022-07-25T10:43:37.379Z,22.11
2022-07-25T10:46:40.452Z,22.30
2022-07-25T10:50:13.923Z,21.24
2022-07-25T10:53:11.275Z,20.76
2022-07-25T10:56:25.679Z,21.66
2022-07-25T10:59:39.047Z,21.45
2022-07-25T11:02:42.979Z,21.51
2022-07-25T11:05:46.895Z,21.76
2022-07-25T11:08:52.982Z,21.55
2022-07-25T11:11:58.424Z,21.32
2022-07-25T11:15:04.235Z,20.40
2022-07-25T11:18:12.083Z,20.63
2022-07-25T11:21:14.766Z,20.91
2022-07-25T11:24:17.611Z,20.46
2022-07-25T11:27:28.665Z,20.68
2022-07-25T11:30:31.224Z,19.87
2022-07-25T11:33:38.438Z,19.66
2022-07-25T11:36:41.328Z,20.05
2022-07-25T11:39:46.383Z,20.06
2022-07-25T11:42:54.856Z,20.59
2022-07-25T11:46:01.963Z,21.14
2022-07-25T11:49:06.485Z,20.84
2022-07-25T11:52:21.551Z,21.40
2022-07-25T11:55:29.485Z,20.66
2022-07-25T11:58:32.088Z,20.68
2022-07-25T12:01:38.582Z,19.95
2022-07-25T12:04:41.161Z,19.73
2022-07-25T12:07:47.607Z,19.85
2022-07-25T12:10:55.530Z,19.73
2022-07-25T12:14:07.789Z,20.27
2022-07-25T12:17:10.297Z,20.19
2022-07-25T12:20:18.619Z,20.14
2022-07-25T12:23:21.995Z,20.38
2022-07-25T12:26:24.456Z,20.00
2022-07-25T12:29:27.061Z,20.20
2022-07-25T12:32:29.513Z,20.20
2022-07-25T12:35:32.567Z,20.02
2022-07-25T12:38:35.186Z,19.58
2022-07-25T12:41:37.858Z,19.44
2022-07-25T12:44:40.106Z,20.05
2022-07-25T12:47:44.452Z,19.84
2022-07-25T12:50:47.055Z,19.99
2022-07-25T12:53:49.797Z,19.13
2022-07-25T12:56:52.163Z,19.28
2022-07-25T12:59:54.995Z,19.25
2022-07-25T13:02:57.559Z,19.34
2022-07-25T13:06:00.348Z,19.45
2022-07-25T13:09:04.252Z,19.34
2022-07-25T13:12:07.543Z,19.25
2022-07-25T13:15:10.064Z,19.44
2022-07-25T13:18:13.180Z,19.57
2022-07-25T13:21:15.607Z,19.43
2022-07-25T13:24:18.696Z,20.06
2022-07-25T13:27:22.682Z,19.75
2022-07-25T13:30:26.667Z,19.78
2022-07-25T13:33:29.245Z,18.94
2022-07-25T13:36:36.532Z,18.75
2022-07-25T13:39:39.630Z,18.71
2022-07-25T13:42:42.486Z,18.63
2022-07-25T13:45:46.318Z,18.33
2022-07-25T13:48:49.511Z,18.42
2022-07-25T13:51:51.858Z,18.23
2022-07-25T13:54:54.504Z,18.24
2022-07-25T13:57:57.185Z,18.28
2022-07-25T14:00:59.945Z,18.38
2022-07-25T14:04:02.903Z,18.25
2022-07-25T14:07:05.869Z,17.93
2022-07-25T14:10:09.468Z,17.85
2022-07-25T14:13:13.086Z,19.13
2022-07-25T14:16:19.027Z,19.36
2022-07-25T14:19:21.433Z,19.41
2022-07-25T14:22:24.282Z,18.97
2022-07-25T14:25:26.628Z,18.58
2022-07-25T14:28:30.045Z,18.54
2022-07-25T14:31:32.907Z,18.45
2022-07-25T14:34:35.855Z,18.22
2022-07-25T14:37:38.337Z,18.30
2022-07-25T14:40:41.501Z,18.50
2022-07-25T14:43:43.922Z,18.03
2022-07-25T14:46:49.017Z,19.22
2022-07-25T14:49:51.538Z,20.85
2022-07-25T14:52:54.478Z,19.64
2022-07-25T14:55:56.816Z,20.29
2022-07-25T14:58:59.454Z,19.54
2022-07-25T15:02:01.852Z,19.38
2022-07-25T15:05:04.940Z,19.03
2022-07-25T15:08:07.710Z,18.97
2022-07-25T15:11:10.682Z,21.27
2022-07-25T15:14:13.212Z,19.41
2022-07-25T15:17:33.871Z,19.23
2022-07-25T15:20:36.702Z,19.47
2022-07-25T15:23:39.308Z,19.44
2022-07-25T15:26:41.782Z,20.26
2022-07-25T15:29:45.411Z,20.52
2022-07-25T15:32:47.759Z,20.10
2022-07-25T15:35:50.726Z,23.24
2022-07-25T15:38:53.228Z,19.95
2022-07-25T15:41:55.892Z,20.14
2022-07-25T15:45:22.325Z,20.10
2022-07-25T15:48:21.400Z,22.75
2022-07-25T15:51:24.786Z,19.89
2022-07-25T15:54:29.583Z,20.36
2022-07-25T15:57:32.183Z,19.73
2022-07-25T16:00:34.905Z,20.95
2022-07-25T16:03:37.715Z,20.18
